createdAt,value
2022-11-02T00:00:39.480Z,12
2022-11-02T00:02:41.452Z,12
2022-11-02T00:04:43.302Z,12.2
2022-11-02T00:06:45.234Z,12
2022-11-02T00:08:47.152Z,12.3
2022-11-02T00:10:49.062Z,12.5
2022-11-02T00:12:54.101Z,12.6
2022-11-02T00:14:56.021Z,12.4
2022-11-02T00:16:57.926Z,12.6
2022-11-02T00:18:59.850Z,12.7
2022-11-02T00:21:01.752Z,12.8
2022-11-02T00:23:04.072Z,12.9
2022-11-02T00:25:05.572Z,13
2022-11-02T00:27:10.619Z,12.9
2022-11-02T00:29:12.531Z,12.8
2022-11-02T00:31:14.424Z,13.1
2022-11-02T00:32:16.968Z,13.1
2022-11-02T00:34:18.869Z,13
2022-11-02T00:36:20.810Z,13.2
2022-11-02T00:38:22.743Z,13.1
2022-11-02T00:40:27.777Z,13.1
2022-11-02T00:42:29.695Z,13
2022-11-02T00:44:31.591Z,13
2022-11-02T00:46:33.506Z,13.1
2022-11-02T00:48:35.438Z,13
2022-11-02T00:50:37.369Z,13.1
2022-11-02T00:52:39.270Z,13.1
2022-11-02T00:54:44.318Z,13
2022-11-02T00:56:46.098Z,13
2022-11-02T00:58:48.007Z,13
2022-11-02T01:00:49.899Z,13.1
2022-11-02T01:02:51.882Z,13.2
2022-11-02T01:04:53.713Z,13.3
2022-11-02T01:06:55.657Z,13.2
2022-11-02T01:09:00.714Z,13.5
2022-11-02T01:11:02.635Z,13.2
2022-11-02T01:13:04.521Z,13.1
2022-11-02T01:15:06.439Z,13.1
2022-11-02T01:17:08.333Z,13
2022-11-02T01:19:10.248Z,12.8
2022-11-02T01:21:12.158Z,12.9
2022-11-02T01:23:17.236Z,12.9
2022-11-02T01:27:21.041Z,13
2022-11-02T01:28:23.559Z,12.9
2022-11-02T01:30:25.466Z,12.9
2022-11-02T01:32:27.369Z,12.9
2022-11-02T01:34:29.275Z,13
2022-11-02T01:36:34.480Z,13.1
2022-11-02T01:38:36.269Z,13
2022-11-02T01:40:38.194Z,13
2022-11-02T01:42:40.087Z,13.1
2022-11-02T01:44:41.998Z,13
2022-11-02T01:46:44.033Z,12.5
2022-11-02T01:48:45.822Z,11.3
2022-11-02T01:50:50.886Z,11.4
2022-11-02T01:52:52.805Z,11.4
2022-11-02T01:54:54.709Z,11.5
2022-11-02T01:56:56.626Z,11.4
2022-11-02T01:58:58.539Z,11.3
2022-11-02T02:01:00.470Z,11.2
2022-11-02T02:03:02.373Z,11
2022-11-02T02:09:11.277Z,11.6
2022-11-02T02:11:13.264Z,11.5
2022-11-02T02:15:17.145Z,11.3
2022-11-02T02:17:19.034Z,11.5
2022-11-02T02:21:26.095Z,11.1
2022-11-02T02:23:28.027Z,11.1
2022-11-02T02:24:30.539Z,11.1
2022-11-02T02:26:32.455Z,11
2022-11-02T02:30:36.306Z,10.9
2022-11-02T02:32:41.459Z,10.7
2022-11-02T02:34:43.363Z,10.8
2022-11-02T02:38:47.330Z,10.6
2022-11-02T02:40:49.259Z,10.7
2022-11-02T02:42:51.265Z,10.6
2022-11-02T02:44:53.198Z,10.6
2022-11-02T02:46:58.319Z,10.6
2022-11-02T02:49:00.221Z,10.5
2022-11-02T02:51:02.152Z,10.3
2022-11-02T02:57:07.916Z,10.4
2022-11-02T02:59:09.936Z,10.5
2022-11-02T03:03:17.207Z,10.3
2022-11-02T03:05:19.191Z,10.5
2022-11-02T03:07:21.276Z,10.4
2022-11-02T03:09:23.268Z,10.3
2022-11-02T03:13:27.275Z,10.5
2022-11-02T03:15:32.441Z,10.6
2022-11-02T03:22:05.068Z,10.8
2022-11-02T03:24:07.083Z,10.9
2022-11-02T03:26:09.008Z,10.8
2022-11-02T03:32:18.112Z,10.9
2022-11-02T03:34:20.022Z,10.9
2022-11-02T03:36:21.941Z,10.9
2022-11-02T03:40:25.876Z,10.8
2022-11-02T03:42:31.130Z,10.8
2022-11-02T03:44:33.177Z,10.9
2022-11-02T03:46:35.175Z,10.7
2022-11-02T03:48:37.207Z,10.9
2022-11-02T03:50:39.231Z,10.8
2022-11-02T03:52:41.216Z,11
2022-11-02T03:54:43.135Z,11
2022-11-02T03:56:48.293Z,10.8
2022-11-02T03:58:50.309Z,10.7
2022-11-02T04:02:54.139Z,10.9
2022-11-02T04:04:56.182Z,11
2022-11-02T04:06:58.750Z,11.1
2022-11-02T04:09:00.503Z,11.3
2022-11-02T04:11:05.504Z,11.3
2022-11-02T04:13:07.535Z,11.3
2022-11-02T04:15:09.538Z,11.1
2022-11-02T04:16:12.165Z,11.2
2022-11-02T04:18:14.081Z,11.3
2022-11-02T04:22:17.942Z,11.2
2022-11-02T04:24:22.987Z,11.2
2022-11-02T04:26:24.911Z,11.3
2022-11-02T04:28:26.940Z,11.4
2022-11-02T04:30:28.942Z,11.4
2022-11-02T04:32:30.862Z,11.7
2022-11-02T04:34:32.798Z,11.6
2022-11-02T04:36:34.729Z,11.8
2022-11-02T04:38:39.786Z,11.5
2022-11-02T04:40:41.667Z,11.6
2022-11-02T04:42:43.597Z,11.9
2022-11-02T04:44:45.514Z,11.8
2022-11-02T04:46:47.435Z,11.8
2022-11-02T04:48:49.333Z,11.9
2022-11-02T04:50:51.383Z,11.8
2022-11-02T04:52:56.413Z,11.8
2022-11-02T04:54:58.366Z,11.8
2022-11-02T04:57:00.434Z,12
2022-11-02T04:59:02.198Z,12.1
2022-11-02T05:01:04.114Z,11.9
2022-11-02T05:03:08.235Z,12
2022-11-02T05:05:07.954Z,12
2022-11-02T05:07:13.012Z,11.6
2022-11-02T05:11:16.836Z,12
2022-11-02T05:12:19.368Z,12
2022-11-02T05:14:21.268Z,11.9
2022-11-02T05:16:23.284Z,11.8
2022-11-02T05:18:25.214Z,11.9
2022-11-02T05:20:30.341Z,11.7
2022-11-02T05:32:43.346Z,12.2
2022-11-02T05:34:48.403Z,12
2022-11-02T05:36:50.313Z,11.8
2022-11-02T05:38:52.231Z,12.2
2022-11-02T05:42:56.057Z,12.1
2022-11-02T05:44:57.956Z,11.9
2022-11-02T05:46:59.902Z,12
2022-11-02T05:51:06.865Z,11.8
2022-11-02T05:53:08.777Z,11.7
2022-11-02T05:55:10.695Z,11.5
2022-11-02T05:57:12.595Z,11.8
2022-11-02T06:01:16.462Z,11.6
2022-11-02T06:07:25.338Z,11.7
2022-11-02T06:08:27.851Z,11.7
2022-11-02T06:10:29.765Z,11.6
2022-11-02T06:12:31.684Z,11.9
2022-11-02T06:14:33.609Z,11.6
2022-11-02T06:16:38.671Z,11.6
2022-11-02T06:18:40.602Z,11.6
2022-11-02T06:20:42.534Z,11.6
2022-11-02T06:22:44.530Z,11.5
2022-11-02T06:24:46.407Z,11.7
2022-11-02T06:26:48.344Z,11.4
2022-11-02T06:28:50.240Z,11.8
2022-11-02T06:30:55.285Z,11.6
2022-11-02T06:32:59.448Z,11.6
2022-11-02T06:34:59.107Z,11.7
2022-11-02T06:43:17.380Z,11.7
2022-11-02T06:49:15.608Z,11.4
2022-11-02T06:51:17.516Z,11.6
2022-11-02T06:53:19.433Z,11.4
2022-11-02T06:55:21.337Z,11.5
2022-11-02T06:57:23.228Z,11.5
2022-11-02T06:59:28.280Z,11.5
2022-11-02T07:01:30.401Z,11.5
2022-11-02T07:03:32.133Z,11.1
2022-11-02T07:08:02.731Z,11.5
2022-11-02T07:10:04.634Z,11.7
2022-11-02T07:12:09.681Z,11.7
2022-11-02T07:14:11.648Z,11.6
2022-11-02T07:18:15.445Z,11.8
2022-11-02T07:20:17.332Z,11.8
2022-11-02T07:22:19.240Z,11.5
2022-11-02T07:24:21.147Z,11.5
2022-11-02T07:26:26.181Z,11.8
2022-11-02T07:28:28.109Z,11.8
2022-11-02T07:32:32.030Z,11.9
2022-11-02T07:38:37.764Z,12
2022-11-02T07:40:42.814Z,11.8
2022-11-02T07:42:44.747Z,11.9
2022-11-02T07:44:46.659Z,11.9
2022-11-02T07:46:48.559Z,11.9
2022-11-02T07:50:52.384Z,11.8
2022-11-02T07:54:59.312Z,12.2
2022-11-02T07:59:03.157Z,12.3
2022-11-02T08:04:09.543Z,12.1
2022-11-02T08:06:11.419Z,12.2
2022-11-02T08:08:16.479Z,11.7
2022-11-02T08:10:18.353Z,11.7
2022-11-02T08:12:20.262Z,11.8
2022-11-02T08:14:22.165Z,12.1
2022-11-02T08:16:24.085Z,12.1
2022-11-02T08:18:25.997Z,11.9
2022-11-02T08:20:27.895Z,11.9
2022-11-02T08:22:32.918Z,12.1
2022-11-02T08:24:34.842Z,12.2
2022-11-02T08:26:38.677Z,12
2022-11-02T08:36:49.452Z,12.4
2022-11-02T08:38:51.364Z,12.5
2022-11-02T08:44:57.108Z,12.7
2022-11-02T08:49:00.951Z,12.7
2022-11-02T08:51:05.984Z,13.2
2022-11-02T08:53:07.909Z,13.2
2022-11-02T08:55:09.992Z,13.8
2022-11-02T08:56:12.342Z,15.3
2022-11-02T08:58:14.260Z,16
2022-11-02T09:00:16.197Z,15.7
2022-11-02T09:02:18.269Z,15.3
2022-11-02T09:04:23.129Z,14.8
2022-11-02T09:06:25.024Z,14.2
2022-11-02T09:08:26.931Z,13.8
2022-11-02T09:10:28.822Z,13.7
2022-11-02T09:12:30.729Z,14.7
2022-11-02T09:14:32.656Z,13.9
2022-11-02T09:18:39.599Z,14.1
2022-11-02T09:20:41.603Z,14.5
2022-11-02T09:22:43.370Z,14.6
2022-11-02T09:26:47.189Z,14.7
2022-11-02T09:28:49.066Z,14.5
2022-11-02T09:30:51.041Z,14.4
2022-11-02T09:32:56.018Z,15.8
2022-11-02T09:34:57.911Z,15.8
2022-11-02T09:36:59.889Z,16.1
2022-11-02T09:39:01.663Z,15.2
2022-11-02T09:41:03.552Z,14.9
2022-11-02T09:43:05.741Z,15.3
2022-11-02T09:45:07.313Z,16
2022-11-02T09:48:03.043Z,15.3
2022-11-02T09:49:14.234Z,15
2022-11-02T09:51:16.123Z,15
2022-11-02T09:52:18.629Z,14.3
2022-11-02T09:54:20.515Z,14.3
2022-11-02T09:56:22.395Z,14.6
2022-11-02T09:58:24.286Z,14.4
2022-11-02T10:00:29.314Z,14.4
2022-11-02T10:02:31.245Z,14.2
2022-11-02T10:04:33.126Z,14
2022-11-02T10:06:34.995Z,14
2022-11-02T10:08:36.901Z,14.1
2022-11-02T10:10:38.787Z,14.2
2022-11-02T10:12:40.678Z,14.1
2022-11-02T10:14:45.701Z,14.1
2022-11-02T10:16:47.598Z,14.1
2022-11-02T10:18:49.482Z,14
2022-11-02T10:20:51.544Z,13.8
2022-11-02T10:22:53.260Z,13.8
2022-11-02T10:24:55.160Z,14
2022-11-02T10:26:57.049Z,14
2022-11-02T10:29:02.129Z,14.5
2022-11-02T10:31:04.024Z,14.5
2022-11-02T10:33:06.147Z,14.2
2022-11-02T10:37:09.721Z,14.3
2022-11-02T10:39:11.614Z,14.6
2022-11-02T10:41:13.489Z,15.4
2022-11-02T10:43:18.534Z,14.7
2022-11-02T10:45:20.433Z,14.6
2022-11-02T10:47:22.341Z,14.5
2022-11-02T10:49:50.894Z,14.6
2022-11-02T10:51:52.790Z,14.5
2022-11-02T10:53:54.801Z,15.1
2022-11-02T10:55:59.778Z,15.1
2022-11-02T10:58:01.671Z,15.3
2022-11-02T11:00:03.747Z,15.8
2022-11-02T11:02:05.524Z,15.3
2022-11-02T11:04:07.343Z,15.2
2022-11-02T11:06:09.250Z,15.1
2022-11-02T11:08:11.134Z,15.4
2022-11-02T11:10:16.174Z,15.3
2022-11-02T11:12:18.079Z,15
2022-11-02T11:16:25.610Z,14.7
2022-11-02T11:20:27.159Z,14.6
2022-11-02T11:22:29.040Z,14.6
2022-11-02T11:26:35.988Z,14.3
2022-11-02T11:28:37.872Z,15
2022-11-02T11:30:59.006Z,15.2
2022-11-02T11:32:41.653Z,15
2022-11-02T11:36:45.436Z,15.2
2022-11-02T11:38:50.453Z,14.7
2022-11-02T11:42:57.514Z,14.7
2022-11-02T11:43:56.765Z,14.6
2022-11-02T11:46:04.794Z,15.2
2022-11-02T11:48:00.537Z,15.6
2022-11-02T11:50:08.491Z,15.6
2022-11-02T11:52:07.483Z,15.5
2022-11-02T11:54:09.356Z,15.4
2022-11-02T11:56:11.240Z,15.7
2022-11-02T11:58:13.156Z,16
2022-11-02T12:00:15.106Z,15.8
2022-11-02T12:02:17.683Z,16.3
2022-11-02T12:04:18.782Z,16.8
2022-11-02T12:06:23.839Z,16.4
2022-11-02T12:08:25.703Z,16.2
2022-11-02T12:10:27.596Z,16
2022-11-02T12:12:29.447Z,16.2
2022-11-02T12:14:31.332Z,16.5
2022-11-02T12:16:33.223Z,17.4
2022-11-02T12:18:35.106Z,17.4
2022-11-02T12:20:40.160Z,18.5
2022-11-02T12:22:42.001Z,19.7
2022-11-02T12:24:43.885Z,19.8
2022-11-02T12:26:45.756Z,19.5
2022-11-02T12:28:47.632Z,20.3
2022-11-02T12:30:49.613Z,19.9
2022-11-02T12:32:51.330Z,20.5
2022-11-02T12:35:23.209Z,20
2022-11-02T12:39:00.037Z,19.5
2022-11-02T12:42:04.373Z,20.1
2022-11-02T12:44:06.210Z,20.5
2022-11-02T12:46:08.024Z,20.4
2022-11-02T12:52:16.662Z,20.1
2022-11-02T12:54:18.459Z,20.9
2022-11-02T12:56:20.308Z,19.9
2022-11-02T13:00:23.910Z,18.4
2022-11-02T13:02:28.885Z,18.3
2022-11-02T13:04:34.038Z,19
2022-11-02T13:06:32.479Z,18.9
2022-11-02T13:08:34.305Z,18.9
2022-11-02T13:10:36.094Z,18
2022-11-02T13:12:37.922Z,18.7
2022-11-02T13:14:39.722Z,17.1
2022-11-02T13:16:44.693Z,17.1
2022-11-02T13:18:46.535Z,17.2
2022-11-02T13:20:48.347Z,18.9
2022-11-02T13:22:50.152Z,19.4
2022-11-02T13:24:51.959Z,19.2
2022-11-02T13:26:57.654Z,19
2022-11-02T13:28:55.622Z,17.6
2022-11-02T13:31:00.605Z,16.1
2022-11-02T13:33:02.740Z,15.7
2022-11-02T13:35:04.253Z,15.9
2022-11-02T13:38:08.952Z,17.6
2022-11-02T13:46:19.040Z,15.3
2022-11-02T13:52:24.583Z,15.3
2022-11-02T14:00:35.180Z,14.7
2022-11-02T14:02:37.142Z,14.8
2022-11-02T14:06:40.777Z,15.1
2022-11-02T14:08:42.656Z,14.8
2022-11-02T14:10:44.526Z,15.2
2022-11-02T14:14:51.434Z,15.1
2022-11-02T14:16:53.351Z,14.9
2022-11-02T14:18:55.184Z,15
2022-11-02T14:20:57.067Z,15.1
2022-11-02T14:22:58.955Z,15.2
2022-11-02T14:25:00.838Z,14.9
2022-11-02T14:27:06.303Z,14.7
2022-11-02T14:29:07.730Z,14.8
2022-11-02T14:31:09.618Z,14.7
2022-11-02T14:33:38.141Z,15
2022-11-02T14:35:40.019Z,14.9
2022-11-02T14:37:41.907Z,14.9
2022-11-02T14:39:46.951Z,14.8
2022-11-02T14:41:48.835Z,14.6
2022-11-02T14:43:50.727Z,14.4
2022-11-02T14:45:52.628Z,14.6
2022-11-02T14:49:56.423Z,14.7
2022-11-02T14:52:03.460Z,14.5
2022-11-02T14:54:03.348Z,14.5
2022-11-02T14:56:05.267Z,14.5
2022-11-02T14:58:10.851Z,14.6
2022-11-02T15:00:09.057Z,14.6
2022-11-02T15:02:10.967Z,14.6
2022-11-02T15:04:12.854Z,14.5
2022-11-02T15:06:14.759Z,14.4
2022-11-02T15:08:19.805Z,14.2
2022-11-02T15:10:21.690Z,14.2
2022-11-02T15:12:23.587Z,14.4
2022-11-02T15:14:25.499Z,14.2
2022-11-02T15:16:27.397Z,14.4
2022-11-02T15:18:29.277Z,13.9
2022-11-02T15:22:36.233Z,14.2
2022-11-02T15:26:42.133Z,13.6
2022-11-02T15:27:42.551Z,13.6
2022-11-02T15:29:44.450Z,14
2022-11-02T15:31:46.334Z,13.6
2022-11-02T15:33:48.254Z,13.5
2022-11-02T15:35:53.283Z,13.5
2022-11-02T15:38:15.959Z,13.7
2022-11-02T15:39:57.115Z,13.5
2022-11-02T15:41:58.994Z,13.6
2022-11-02T15:44:00.915Z,13.4
2022-11-02T15:46:06.658Z,13.3
2022-11-02T15:48:05.050Z,13.3
2022-11-02T15:50:09.794Z,13.3
2022-11-02T15:52:11.710Z,13.4
2022-11-02T15:54:13.610Z,13.4
2022-11-02T15:56:15.516Z,13.1
2022-11-02T15:58:17.420Z,13.4
2022-11-02T16:00:19.314Z,13.2
2022-11-02T16:02:21.262Z,13
2022-11-02T16:04:26.283Z,13.1
2022-11-02T16:06:28.196Z,13.1
2022-11-02T16:08:30.109Z,13.1
2022-11-02T16:10:32.020Z,13.1
2022-11-02T16:12:33.928Z,12.8
2022-11-02T16:14:35.847Z,12.9
2022-11-02T16:16:37.758Z,13
2022-11-02T16:18:42.817Z,12.8
2022-11-02T16:20:44.706Z,12.7
2022-11-02T16:22:46.616Z,12.8
2022-11-02T16:23:49.127Z,12.4
2022-11-02T16:25:51.049Z,12.7
2022-11-02T16:27:52.984Z,12.7
2022-11-02T16:29:54.893Z,12.7
2022-11-02T16:31:59.952Z,12.5
2022-11-02T16:34:01.877Z,12.9
2022-11-02T16:36:03.775Z,12.5
2022-11-02T16:38:06.082Z,12.5
2022-11-02T16:40:07.613Z,12.5
2022-11-02T16:42:09.543Z,12.3
2022-11-02T16:44:11.475Z,12.2
2022-11-02T16:46:16.520Z,12.2
2022-11-02T16:48:18.432Z,12.2
2022-11-02T16:50:20.346Z,12.4
2022-11-02T16:52:22.257Z,12.3
2022-11-02T16:54:24.168Z,12.3
2022-11-02T16:56:26.095Z,12
2022-11-02T16:58:28.008Z,11.7
2022-11-02T17:00:33.082Z,12.2
2022-11-02T17:02:35.088Z,12
2022-11-02T17:04:36.927Z,12.2
2022-11-02T17:06:38.816Z,12
2022-11-02T17:08:40.729Z,11.8
2022-11-02T17:10:44.199Z,11.9
2022-11-02T17:12:46.050Z,11.9
2022-11-02T17:14:51.109Z,12
2022-11-02T17:16:53.038Z,11.9
2022-11-02T17:18:54.952Z,11.6
2022-11-02T17:21:59.372Z,11.8
2022-11-02T17:24:01.289Z,11.8
2022-11-02T17:28:08.450Z,12
2022-11-02T17:30:10.170Z,11.8
2022-11-02T17:32:12.109Z,11.8
2022-11-02T17:34:14.033Z,12.1
2022-11-02T17:36:15.927Z,12
2022-11-02T17:38:17.820Z,12
2022-11-02T17:40:19.777Z,11.9
2022-11-02T17:42:24.818Z,11.9
2022-11-02T17:44:26.738Z,11.7
2022-11-02T17:46:28.651Z,12.3
2022-11-02T17:48:30.563Z,12.3
2022-11-02T17:50:32.462Z,12.1
2022-11-02T17:52:34.388Z,12.1
2022-11-02T17:54:36.281Z,12.1
2022-11-02T17:56:41.330Z,12.2
2022-11-02T17:58:43.253Z,12.2
2022-11-02T18:00:45.297Z,12.2
2022-11-02T18:02:47.079Z,11.9
2022-11-02T18:04:49.037Z,12.1
2022-11-02T18:06:50.908Z,11.6
2022-11-02T18:08:52.823Z,12.1
2022-11-02T18:12:59.777Z,11.8
2022-11-02T18:15:01.696Z,11.6
2022-11-02T18:17:34.774Z,11.8
2022-11-02T18:19:32.221Z,11.8
2022-11-02T18:21:34.129Z,11.7
2022-11-02T18:23:39.199Z,11.7
2022-11-02T18:25:41.115Z,11.9
2022-11-02T18:27:43.029Z,11.7
2022-11-02T18:29:44.940Z,11.8
2022-11-02T18:31:46.865Z,11.8
2022-11-02T18:33:48.755Z,11.8
2022-11-02T18:35:50.686Z,11.6
2022-11-02T18:37:55.757Z,12
2022-11-02T18:39:57.664Z,11.6
2022-11-02T18:44:05.542Z,12
2022-11-02T18:48:05.603Z,11.9
2022-11-02T18:52:12.340Z,12.1
2022-11-02T18:54:14.226Z,11.9
2022-11-02T18:56:16.129Z,12.1
2022-11-02T18:58:18.071Z,11.9
2022-11-02T19:00:19.977Z,12.1
2022-11-02T19:02:21.977Z,11.9
2022-11-02T19:04:23.801Z,12
2022-11-02T19:06:28.857Z,11.9
2022-11-02T19:08:30.763Z,12.1
2022-11-02T19:10:32.668Z,11.9
2022-11-02T19:11:35.170Z,12.3
2022-11-02T19:13:37.091Z,12.1
2022-11-02T19:17:40.928Z,12.3
2022-11-02T19:19:45.971Z,11.9
2022-11-02T19:23:49.813Z,12.4
2022-11-02T19:25:51.745Z,12.3
2022-11-02T19:27:53.658Z,12.4
2022-11-02T19:29:55.582Z,12.6
2022-11-02T19:31:57.476Z,12.7
2022-11-02T19:34:02.523Z,12.6
2022-11-02T19:36:04.421Z,12.6
2022-11-02T19:38:06.376Z,12.3
2022-11-02T19:40:08.291Z,12.5
2022-11-02T19:42:10.222Z,12.7
2022-11-02T19:44:12.120Z,12.6
2022-11-02T19:50:20.983Z,12.6
2022-11-02T19:52:22.904Z,12.3
2022-11-02T19:54:24.829Z,12.7
2022-11-02T19:56:26.750Z,12.6
2022-11-02T19:58:28.649Z,12.5
2022-11-02T20:00:30.559Z,12.7
2022-11-02T20:02:35.676Z,12.4
2022-11-02T20:04:42.158Z,12.5
2022-11-02T20:06:39.593Z,12.6
2022-11-02T20:07:41.951Z,12.4
2022-11-02T20:09:43.869Z,12.5
2022-11-02T20:11:45.804Z,12.4
2022-11-02T20:13:47.692Z,12.2
2022-11-02T20:15:52.757Z,12.2
2022-11-02T20:18:17.760Z,12.3
2022-11-02T20:19:56.589Z,12.2
2022-11-02T20:21:58.496Z,12
2022-11-02T20:24:00.445Z,12.3
2022-11-02T20:26:02.349Z,12.3
2022-11-02T20:28:04.535Z,12.2
2022-11-02T20:30:09.281Z,12.3
2022-11-02T20:32:11.217Z,12.1
2022-11-02T20:34:13.137Z,12.3
2022-11-02T20:36:15.051Z,12.4
2022-11-02T20:38:16.970Z,12.3
2022-11-02T20:42:20.789Z,12.4
2022-11-02T20:44:25.818Z,12.2
2022-11-02T20:46:39.029Z,12.1
2022-11-02T20:48:29.673Z,12.1
2022-11-02T20:50:31.593Z,12.1
2022-11-02T20:52:33.491Z,11.9
2022-11-02T20:54:35.384Z,11.7
2022-11-02T20:56:37.301Z,12.2
2022-11-02T20:58:42.330Z,12.1
2022-11-02T21:00:44.276Z,12
2022-11-02T21:02:46.193Z,11.9
2022-11-02T21:03:48.709Z,12.3
2022-11-02T21:05:50.636Z,11.9
2022-11-02T21:07:52.548Z,12
2022-11-02T21:09:54.455Z,12.3
2022-11-02T21:11:59.520Z,12.1
2022-11-02T21:14:01.429Z,12.1
2022-11-02T21:16:03.347Z,12
2022-11-02T21:18:05.258Z,12.1
2022-11-02T21:20:33.210Z,12.2
2022-11-02T21:22:09.080Z,11.9
2022-11-02T21:24:10.985Z,12.2
2022-11-02T21:26:16.057Z,12.2
2022-11-02T21:28:17.958Z,12.2
2022-11-02T21:30:19.890Z,12
2022-11-02T21:32:21.820Z,12.2
2022-11-02T21:34:23.745Z,12.4
2022-11-02T21:40:32.614Z,12.3
2022-11-02T21:42:34.528Z,12.2
2022-11-02T21:44:36.448Z,12.4
2022-11-02T21:48:40.291Z,11.9
2022-11-02T21:50:42.193Z,12.1
2022-11-02T21:56:51.238Z,12.1
2022-11-02T21:58:53.010Z,12.2
2022-11-02T22:01:21.703Z,12.3
2022-11-02T22:03:23.524Z,12.2
2022-11-02T22:05:25.438Z,12.3
2022-11-02T22:07:30.463Z,12.1
2022-11-02T22:09:32.403Z,12.3
2022-11-02T22:11:34.316Z,12.2
2022-11-02T22:13:36.231Z,12.3
2022-11-02T22:15:38.611Z,12.2
2022-11-02T22:17:49.681Z,12.1
2022-11-02T22:19:41.981Z,12.1
2022-11-02T22:21:47.043Z,12.4
2022-11-02T22:23:48.953Z,11.7
2022-11-02T22:25:50.873Z,12
2022-11-02T22:27:52.793Z,12.2
2022-11-02T22:29:55.721Z,12.1
2022-11-02T22:31:57.654Z,12.1
2022-11-02T22:33:59.581Z,11.9
2022-11-02T22:36:04.638Z,12
2022-11-02T22:38:06.561Z,12.1
2022-11-02T22:40:08.448Z,12
2022-11-02T22:42:10.362Z,12.1
2022-11-02T22:44:12.292Z,12.1
2022-11-02T22:46:14.213Z,12
2022-11-02T22:48:16.126Z,12
2022-11-02T22:50:23.757Z,12
2022-11-02T22:52:23.081Z,12
2022-11-02T22:54:24.970Z,12.1
2022-11-02T22:55:27.490Z,12.1
2022-11-02T22:59:31.358Z,12
2022-11-02T23:01:33.449Z,11.9
2022-11-02T23:03:39.869Z,12
2022-11-02T23:05:41.795Z,11.9
2022-11-02T23:07:43.728Z,12.1
2022-11-02T23:09:45.642Z,12
2022-11-02T23:11:47.550Z,12
2022-11-02T23:13:49.466Z,11.7
2022-11-02T23:15:51.387Z,11.9
2022-11-02T23:17:56.446Z,11.8
2022-11-02T23:19:58.374Z,12
2022-11-02T23:22:00.276Z,12
2022-11-02T23:24:02.208Z,12
2022-11-02T23:26:04.133Z,11.9
2022-11-02T23:32:13.028Z,11.7
2022-11-02T23:34:14.941Z,11.9
2022-11-02T23:36:16.853Z,11.6
2022-11-02T23:38:18.788Z,11.8
2022-11-02T23:40:20.696Z,11.9
2022-11-02T23:42:22.642Z,12
2022-11-02T23:44:24.534Z,11.7
2022-11-02T23:46:29.574Z,11.6
2022-11-02T23:48:31.509Z,11.4
2022-11-02T23:50:33.406Z,11.9
2022-11-02T23:53:37.849Z,11.9
2022-11-02T23:55:39.752Z,11.6
2022-11-02T23:57:41.664Z,11.8
